Time;durP1;ratioP1;P1;durP2;ratioP2;P2;SDS_P1;SDS_P2;PMS_P1;PMS_P2;Temp;Humidity;BMP_temperature;BMP_pressure;BME280_temperature;BME280_humidity;BME280_pressure;Samples;Min_cycle;Max_cycle;Signal;HPM_P1;HPM_P2
2023/03/23 00:01:21;;;;;;;4.78;4.28;;;;;;;;;;4967088;28;20041;-67
2023/03/23 00:03:52;;;;;;;6.20;4.50;;;;;;;;;;4970794;28;20038;-67
2023/03/23 00:06:19;;;;;;;7.30;4.70;;;;;;;;;;4968872;28;20525;-67
2023/03/23 00:08:55;;;;;;;5.57;5.00;;;;;;;;;;4962069;28;20042;-67
2023/03/23 00:11:29;;;;;;;5.75;5.15;;;;;;;;;;4972396;28;20109;-67
2023/03/23 00:13:57;;;;;;;5.32;4.72;;;;;;;;;;4968189;28;20467;-67
2023/03/23 00:16:37;;;;;;;5.15;4.50;;;;;;;;;;4968041;28;20509;-67
2023/03/23 00:19:05;;;;;;;4.90;4.20;;;;;;;;;;4971299;28;20679;-67
2023/03/23 00:21:34;;;;;;;5.95;4.45;;;;;;;;;;4973778;28;20027;-67
2023/03/23 00:24:08;;;;;;;6.88;4.30;;;;;;;;;;4973697;28;20613;-67
2023/03/23 00:26:36;;;;;;;4.68;4.28;;;;;;;;;;4968257;28;20544;-67
2023/03/23 00:29:03;;;;;;;4.60;4.20;;;;;;;;;;4967704;28;20506;-67
2023/03/23 00:31:35;;;;;;;4.80;4.40;;;;;;;;;;4972278;28;20572;-67
2023/03/23 00:34:04;;;;;;;6.55;4.68;;;;;;;;;;4970696;28;20054;-67
2023/03/23 00:36:31;;;;;;;5.45;4.95;;;;;;;;;;4969438;28;20457;-67
2023/03/23 00:38:59;;;;;;;5.30;4.80;;;;;;;;;;4968212;28;20039;-67
2023/03/23 00:41:26;;;;;;;5.43;4.72;;;;;;;;;;4967917;28;20545;-66
2023/03/23 00:43:53;;;;;;;5.43;4.57;;;;;;;;;;4968919;28;20727;-67
2023/03/23 00:46:20;;;;;;;5.18;4.63;;;;;;;;;;4970579;28;20031;-66
2023/03/23 00:48:46;;;;;;;4.47;4.18;;;;;;;;;;4974108;28;20027;-66
2023/03/23 00:51:12;;;;;;;4.70;4.30;;;;;;;;;;4966104;28;20114;-67
2023/03/23 00:53:41;;;;;;;4.65;4.25;;;;;;;;;;4968680;28;20045;-67
2023/03/23 00:56:08;;;;;;;4.70;4.30;;;;;;;;;;4973228;28;20343;-67
2023/03/23 00:58:34;;;;;;;7.18;4.55;;;;;;;;;;4970901;28;20031;-67
2023/03/23 01:01:00;;;;;;;4.95;4.45;;;;;;;;;;4968597;28;20056;-67
2023/03/23 01:03:27;;;;;;;4.90;4.20;;;;;;;;;;4975590;28;20449;-67
2023/03/23 01:05:54;;;;;;;4.25;3.95;;;;;;;;;;4988583;28;20050;-67
2023/03/23 01:08:21;;;;;;;4.63;4.22;;;;;;;;;;4965955;28;20109;-67
2023/03/23 01:10:47;;;;;;;4.72;4.32;;;;;;;;;;4969912;28;20042;-67
2023/03/23 01:13:14;;;;;;;8.02;5.05;;;;;;;;;;4967792;28;20082;-67
2023/03/23 01:15:41;;;;;;;6.50;5.03;;;;;;;;;;4971744;28;20037;-67
2023/03/23 01:18:08;;;;;;;5.93;5.18;;;;;;;;;;4973661;28;20038;-67
2023/03/23 01:20:35;;;;;;;7.72;5.22;;;;;;;;;;4977631;28;20422;-66
2023/03/23 01:23:01;;;;;;;7.28;5.60;;;;;;;;;;4989002;28;20026;-67
2023/03/23 01:25:35;;;;;;;5.93;5.32;;;;;;;;;;4970781;28;20046;-67
2023/03/23 01:28:00;;;;;;;7.95;5.18;;;;;;;;;;4977727;28;20070;-67
2023/03/23 01:30:27;;;;;;;5.80;5.20;;;;;;;;;;4973216;28;20477;-67
2023/03/23 01:32:54;;;;;;;7.28;5.18;;;;;;;;;;4985994;28;20407;-67
2023/03/23 01:35:21;;;;;;;5.10;4.53;;;;;;;;;;4974241;28;20078;-67
2023/03/23 01:37:48;;;;;;;6.18;5.25;;;;;;;;;;4970639;28;20109;-67
2023/03/23 01:40:14;;;;;;;4.63;4.25;;;;;;;;;;4973759;28;20031;-68
2023/03/23 01:42:41;;;;;;;6.22;5.13;;;;;;;;;;4969959;28;20039;-67
2023/03/23 01:45:19;;;;;;;6.57;4.95;;;;;;;;;;4970407;28;20486;-67
2023/03/23 01:47:56;;;;;;;7.82;5.05;;;;;;;;;;4973381;28;20568;-67
2023/03/23 01:50:24;;;;;;;5.38;4.88;;;;;;;;;;4973639;28;20038;-67
2023/03/23 01:52:53;;;;;;;6.30;4.57;;;;;;;;;;4969594;28;20043;-67
2023/03/23 01:55:19;;;;;;;6.50;5.10;;;;;;;;;;4971493;28;20132;-67
2023/03/23 01:57:47;;;;;;;6.30;4.90;;;;;;;;;;4973314;28;20035;-67
2023/03/23 02:00:16;;;;;;;5.10;4.70;;;;;;;;;;4970412;28;20034;-67
2023/03/23 02:02:49;;;;;;;6.03;4.65;;;;;;;;;;4969974;28;20041;-67
2023/03/23 02:05:33;;;;;;;4.90;4.50;;;;;;;;;;4992072;28;20038;-67
2023/03/23 02:08:05;;;;;;;4.63;4.32;;;;;;;;;;4967732;28;20041;-67
2023/03/23 02:10:34;;;;;;;5.53;5.03;;;;;;;;;;4969097;28;20043;-67
2023/03/23 02:13:03;;;;;;;5.40;4.75;;;;;;;;;;4971850;28;20070;-67
2023/03/23 02:15:43;;;;;;;6.60;5.03;;;;;;;;;;4990585;28;20039;-67
2023/03/23 02:18:25;;;;;;;5.35;4.57;;;;;;;;;;4967468;28;20410;-67
2023/03/23 02:21:24;;;;;;;5.35;4.72;;;;;;;;;;4971435;28;20031;-67
2023/03/23 02:24:05;;;;;;;5.47;4.93;;;;;;;;;;4971885;28;20047;-67
2023/03/23 02:26:52;;;;;;;5.82;5.00;;;;;;;;;;4970568;28;20038;-67
2023/03/23 02:30:08;;;;;;;5.05;4.55;;;;;;;;;;4984463;28;20051;-67
2023/03/23 02:32:39;;;;;;;5.85;5.10;;;;;;;;;;4967243;28;20046;-67
2023/03/23 02:35:16;;;;;;;5.18;4.68;;;;;;;;;;4967054;28;20053;-67
2023/03/23 02:38:05;;;;;;;5.20;4.70;;;;;;;;;;4949451;28;20042;-67
2023/03/23 02:40:37;;;;;;;5.03;4.57;;;;;;;;;;4950633;28;20038;-67
2023/03/23 02:43:06;;;;;;;4.38;4.07;;;;;;;;;;4953784;28;20099;-67
2023/03/23 02:45:34;;;;;;;4.75;4.40;;;;;;;;;;4949413;28;20037;-67
2023/03/23 02:48:02;;;;;;;4.72;4.43;;;;;;;;;;4953114;28;20779;-67
2023/03/23 02:50:30;;;;;;;8.07;4.72;;;;;;;;;;4952190;28;20207;-67
2023/03/23 02:52:58;;;;;;;5.13;4.30;;;;;;;;;;4952008;28;20055;-68
2023/03/23 02:55:25;;;;;;;5.43;4.72;;;;;;;;;;4950783;28;20171;-67
2023/03/23 02:57:53;;;;;;;5.90;4.65;;;;;;;;;;4951451;28;20037;-67
2023/03/23 03:00:20;;;;;;;4.80;4.30;;;;;;;;;;4950611;28;20506;-67
2023/03/23 03:02:55;;;;;;;7.38;4.72;;;;;;;;;;4950007;28;20074;-67
2023/03/23 03:05:46;;;;;;;8.85;4.78;;;;;;;;;;4950350;28;20061;-67
2023/03/23 03:08:21;;;;;;;5.13;4.65;;;;;;;;;;4968590;28;20112;-65
2023/03/23 03:10:51;;;;;;;5.07;4.57;;;;;;;;;;4988009;28;20034;-67
2023/03/23 03:13:29;;;;;;;4.72;4.30;;;;;;;;;;4967546;28;20566;-68
2023/03/23 03:16:19;;;;;;;4.53;4.22;;;;;;;;;;4969437;28;20046;-67
2023/03/23 03:18:56;;;;;;;4.97;4.47;;;;;;;;;;4971976;28;20042;-67
2023/03/23 03:21:25;;;;;;;4.82;4.47;;;;;;;;;;4969173;28;20042;-67
2023/03/23 03:23:56;;;;;;;5.20;4.63;;;;;;;;;;4971385;28;20035;-67
2023/03/23 03:26:26;;;;;;;4.55;4.10;;;;;;;;;;4974755;28;20058;-67
2023/03/23 03:28:56;;;;;;;5.03;4.53;;;;;;;;;;4966511;28;20041;-67
2023/03/23 03:31:32;;;;;;;4.60;4.30;;;;;;;;;;4969899;28;20475;-67
2023/03/23 03:34:00;;;;;;;4.70;4.32;;;;;;;;;;4972281;28;20065;-67
2023/03/23 03:36:34;;;;;;;;;;;;;;;;;;4971944;28;20417;-67
2023/03/23 03:39:20;;;;;;;5.50;4.20;;;;;;;;;;5000724;28;19974;-67
2023/03/23 03:41:47;;;;;;;6.10;4.50;;;;;;;;;;5007316;28;20045;-67
2023/03/23 03:44:14;;;;;;;4.60;4.30;;;;;;;;;;4992451;28;20041;-67
2023/03/23 03:46:40;;;;;;;8.38;4.80;;;;;;;;;;5000474;28;20046;-67
2023/03/23 03:49:08;;;;;;;4.97;4.50;;;;;;;;;;4985899;28;20046;-68
2023/03/23 03:51:36;;;;;;;4.80;4.40;;;;;;;;;;4991491;28;20046;-68
2023/03/23 03:54:03;;;;;;;5.00;4.50;;;;;;;;;;4987068;28;20129;-67
2023/03/23 03:56:32;;;;;;;5.28;4.60;;;;;;;;;;4986410;28;20156;-67
2023/03/23 03:59:18;;;;;;;6.55;4.97;;;;;;;;;;4984475;28;20054;-67
2023/03/23 04:02:06;;;;;;;5.07;4.38;;;;;;;;;;5008759;28;20049;-66
2023/03/23 04:04:31;;;;;;;5.13;4.50;;;;;;;;;;4987105;28;20064;-67
2023/03/23 04:06:57;;;;;;;5.18;4.68;;;;;;;;;;5000578;28;20050;-66
2023/03/23 04:09:23;;;;;;;4.80;4.30;;;;;;;;;;4986806;28;20124;-67
2023/03/23 04:11:48;;;;;;;4.80;4.40;;;;;;;;;;4971008;28;20035;-68
2023/03/23 04:14:34;;;;;;;5.55;4.80;;;;;;;;;;4962601;28;20462;-67
2023/03/23 04:17:00;;;;;;;4.72;4.32;;;;;;;;;;4966759;28;20046;-67
2023/03/23 04:19:28;;;;;;;4.90;4.50;;;;;;;;;;4967286;28;20038;-67
2023/03/23 04:21:54;;;;;;;4.80;4.40;;;;;;;;;;4967610;28;20039;-67
2023/03/23 04:24:21;;;;;;;4.70;4.30;;;;;;;;;;4969866;28;20041;-66
2023/03/23 04:26:47;;;;;;;6.05;4.55;;;;;;;;;;4982161;28;20507;-67
2023/03/23 04:29:21;;;;;;;4.72;4.32;;;;;;;;;;4973900;28;20034;-66
2023/03/23 04:31:52;;;;;;;4.93;4.30;;;;;;;;;;4972472;28;20041;-67
2023/03/23 04:34:27;;;;;;;4.57;4.18;;;;;;;;;;4970577;28;20035;-67
2023/03/23 04:36:53;;;;;;;4.45;4.10;;;;;;;;;;4970302;28;20062;-67
2023/03/23 04:39:28;;;;;;;6.47;4.10;;;;;;;;;;4971567;28;20598;-68
2023/03/23 04:42:00;;;;;;;4.43;4.13;;;;;;;;;;4963461;28;20098;-67
2023/03/23 04:45:02;;;;;;;4.93;4.32;;;;;;;;;;4965727;28;20045;-66
2023/03/23 04:47:39;;;;;;;5.10;4.60;;;;;;;;;;4967182;28;20109;-67
2023/03/23 04:50:12;;;;;;;4.85;4.40;;;;;;;;;;4986386;28;20050;-67
2023/03/23 04:52:44;;;;;;;4.78;4.38;;;;;;;;;;4967212;28;20038;-67
2023/03/23 04:55:12;;;;;;;5.25;4.88;;;;;;;;;;4989226;28;20030;-67
2023/03/23 04:57:40;;;;;;;8.02;4.65;;;;;;;;;;4973479;28;20088;-67
2023/03/23 05:00:25;;;;;;;4.93;4.45;;;;;;;;;;4967463;28;20126;-67
2023/03/23 05:02:55;;;;;;;4.78;4.38;;;;;;;;;;4971318;28;20043;-66
2023/03/23 05:05:24;;;;;;;4.85;4.53;;;;;;;;;;4971308;28;20104;-67
2023/03/23 05:07:51;;;;;;;4.60;4.20;;;;;;;;;;4963820;28;20472;-67
2023/03/23 05:10:20;;;;;;;5.03;4.32;;;;;;;;;;4969928;28;20101;-66
2023/03/23 05:12:46;;;;;;;4.63;4.22;;;;;;;;;;4968999;28;20047;-66
2023/03/23 05:15:14;;;;;;;4.60;4.30;;;;;;;;;;4965992;28;20069;-67
2023/03/23 05:17:43;;;;;;;;;;;;;;;;;;4966778;28;20039;-67
2023/03/23 05:20:18;;;;;;;6.55;4.80;;;;;;;;;;4973277;28;19921;-67
2023/03/23 05:22:50;;;;;;;4.65;4.25;;;;;;;;;;4965236;28;20343;-67
2023/03/23 05:25:22;;;;;;;4.65;4.25;;;;;;;;;;4968413;28;20039;-67
2023/03/23 05:27:55;;;;;;;4.80;4.28;;;;;;;;;;4971145;28;20046;-67
2023/03/23 05:30:40;;;;;;;5.00;4.60;;;;;;;;;;4971277;28;20644;-67
2023/03/23 05:33:09;;;;;;;5.87;5.27;;;;;;;;;;4969598;28;20090;-66
2023/03/23 05:35:55;;;;;;;5.90;5.13;;;;;;;;;;4967794;28;20042;-67
2023/03/23 05:38:27;;;;;;;5.53;5.03;;;;;;;;;;4964616;28;20503;-67
2023/03/23 05:40:54;;;;;;;5.53;5.03;;;;;;;;;;4967447;28;20038;-67
2023/03/23 05:43:26;;;;;;;5.90;5.32;;;;;;;;;;4966180;28;20533;-67
2023/03/23 05:46:17;;;;;;;6.28;5.68;;;;;;;;;;4968773;28;20050;-67
2023/03/23 05:48:44;;;;;;;5.72;5.28;;;;;;;;;;4965706;28;20039;-67
2023/03/23 05:51:14;;;;;;;6.03;5.53;;;;;;;;;;4966411;28;20035;-67
2023/03/23 05:53:42;;;;;;;6.63;5.97;;;;;;;;;;4960772;28;20062;-67
2023/03/23 05:56:10;;;;;;;5.85;5.40;;;;;;;;;;4985517;28;20042;-66
2023/03/23 05:58:58;;;;;;;5.07;4.68;;;;;;;;;;4966019;28;20513;-66
2023/03/23 06:01:25;;;;;;;4.88;4.47;;;;;;;;;;4984942;28;20035;-67
2023/03/23 06:03:53;;;;;;;5.38;4.97;;;;;;;;;;4987361;28;20445;-66
2023/03/23 06:06:23;;;;;;;6.32;5.72;;;;;;;;;;4964725;28;20058;-67
2023/03/23 06:09:03;;;;;;;6.10;5.60;;;;;;;;;;4988314;28;20081;-66
2023/03/23 06:11:49;;;;;;;5.65;5.22;;;;;;;;;;4970083;28;20039;-67
2023/03/23 06:14:36;;;;;;;5.80;5.30;;;;;;;;;;4974138;28;20046;-67
2023/03/23 06:17:02;;;;;;;7.93;5.63;;;;;;;;;;4970697;28;20403;-66
2023/03/23 06:19:28;;;;;;;5.40;5.00;;;;;;;;;;4974320;28;20499;-66
2023/03/23 06:22:02;;;;;;;5.95;5.45;;;;;;;;;;4970024;28;20839;-66
2023/03/23 06:24:57;;;;;;;6.32;5.82;;;;;;;;;;4968087;28;20149;-67
2023/03/23 06:27:28;;;;;;;11.10;9.55;;;;;;;;;;4969267;28;20039;-66
2023/03/23 06:29:56;;;;;;;6.55;5.95;;;;;;;;;;4965454;28;20039;-67
2023/03/23 06:32:23;;;;;;;6.25;5.70;;;;;;;;;;4969161;28;20092;-67
2023/03/23 06:34:49;;;;;;;5.95;5.40;;;;;;;;;;4993496;28;20446;-67
2023/03/23 06:37:38;;;;;;;5.68;5.28;;;;;;;;;;4969410;28;20285;-67
2023/03/23 06:40:11;;;;;;;5.60;5.10;;;;;;;;;;4954497;28;20115;-67
2023/03/23 06:42:38;;;;;;;6.25;5.32;;;;;;;;;;4968800;28;20556;-67
2023/03/23 06:45:31;;;;;;;5.90;5.38;;;;;;;;;;4968950;28;20082;-67
2023/03/23 06:48:25;;;;;;;5.93;5.30;;;;;;;;;;4972799;28;20047;-67
2023/03/23 06:50:51;;;;;;;5.65;5.20;;;;;;;;;;4968115;28;20661;-67
2023/03/23 06:53:20;;;;;;;5.97;5.47;;;;;;;;;;4969832;28;20034;-67
2023/03/23 06:55:47;;;;;;;6.10;5.50;;;;;;;;;;4968618;28;20308;-67
2023/03/23 06:58:12;;;;;;;5.75;5.28;;;;;;;;;;4965188;28;20491;-67
2023/03/23 07:00:40;;;;;;;6.20;5.60;;;;;;;;;;4973145;28;20222;-67
2023/03/23 07:03:07;;;;;;;6.07;5.22;;;;;;;;;;4978502;28;20065;-67
2023/03/23 07:05:33;;;;;;;6.13;5.43;;;;;;;;;;4986322;28;20042;-67
2023/03/23 07:07:59;;;;;;;6.85;5.70;;;;;;;;;;4967313;28;20098;-66
2023/03/23 07:10:32;;;;;;;7.15;5.50;;;;;;;;;;4971761;28;20073;-67
2023/03/23 07:13:00;;;;;;;7.10;5.80;;;;;;;;;;4968743;28;20090;-67
2023/03/23 07:15:31;;;;;;;6.43;5.38;;;;;;;;;;4966034;28;20041;-66
2023/03/23 07:17:57;;;;;;;6.10;5.28;;;;;;;;;;4967759;28;20142;-66
2023/03/23 07:20:39;;;;;;;8.27;4.97;;;;;;;;;;4991380;28;20105;-66
2023/03/23 07:23:07;;;;;;;6.38;5.57;;;;;;;;;;4969168;28;20130;-66
2023/03/23 07:25:44;;;;;;;6.70;4.95;;;;;;;;;;4968146;28;20442;-67
2023/03/23 07:28:14;;;;;;;5.78;5.10;;;;;;;;;;4966366;28;20030;-68
2023/03/23 07:30:40;;;;;;;5.70;5.20;;;;;;;;;;4972751;28;20086;-67
2023/03/23 07:33:09;;;;;;;8.30;5.57;;;;;;;;;;4967321;28;20130;-68
2023/03/23 07:35:35;;;;;;;5.40;5.00;;;;;;;;;;4973354;28;20490;-67
2023/03/23 07:38:05;;;;;;;5.78;5.20;;;;;;;;;;4976327;28;20053;-68
2023/03/23 07:40:33;;;;;;;6.18;5.10;;;;;;;;;;4971314;28;20458;-67
2023/03/23 07:43:03;;;;;;;7.00;4.70;;;;;;;;;;4966739;28;20039;-67
2023/03/23 07:45:46;;;;;;;5.20;4.80;;;;;;;;;;4966684;28;20041;-67
2023/03/23 07:48:14;;;;;;;5.63;4.38;;;;;;;;;;4967667;28;20066;-67
2023/03/23 07:50:40;;;;;;;5.38;4.65;;;;;;;;;;4972183;28;20074;-67
2023/03/23 07:53:08;;;;;;;4.75;4.43;;;;;;;;;;4970408;28;20056;-67
2023/03/23 07:55:35;;;;;;;5.00;4.47;;;;;;;;;;4988100;28;20597;-67
2023/03/23 07:58:09;;;;;;;5.80;4.75;;;;;;;;;;4972317;28;20041;-68
2023/03/23 08:00:35;;;;;;;4.90;4.50;;;;;;;;;;4979359;28;20107;-67
2023/03/23 08:03:05;;;;;;;6.63;4.47;;;;;;;;;;4967417;28;20503;-67
2023/03/23 08:05:43;;;;;;;4.40;4.10;;;;;;;;;;4973807;28;21092;-67
2023/03/23 08:08:12;;;;;;;4.57;4.23;;;;;;;;;;4977799;28;20162;-67
2023/03/23 08:11:01;;;;;;;5.80;4.50;;;;;;;;;;4975149;28;20105;-67
2023/03/23 08:13:39;;;;;;;9.30;4.30;;;;;;;;;;4968487;28;20038;-67
2023/03/23 08:16:18;;;;;;;5.60;4.70;;;;;;;;;;4966507;28;20098;-68
2023/03/23 08:19:05;;;;;;;7.22;4.25;;;;;;;;;;4967465;28;20389;-68
2023/03/23 08:21:56;;;;;;;10.00;3.95;;;;;;;;;;4971101;28;20043;-68
2023/03/23 08:24:34;;;;;;;5.00;4.10;;;;;;;;;;4973172;28;20097;-68
2023/03/23 08:27:08;;;;;;;4.47;4.15;;;;;;;;;;4972290;28;20065;-68
2023/03/23 08:29:59;;;;;;;5.57;4.28;;;;;;;;;;4968513;28;20497;-68
2023/03/23 08:32:47;;;;;;;4.72;4.30;;;;;;;;;;4960469;28;20053;-68
2023/03/23 08:35:32;;;;;;;5.25;3.90;;;;;;;;;;4971126;28;20038;-67
2023/03/23 08:38:27;;;;;;;6.60;5.30;;;;;;;;;;4965564;28;20053;-67
2023/03/23 08:41:12;;;;;;;4.22;3.83;;;;;;;;;;4973204;28;20035;-67
2023/03/23 08:44:05;;;;;;;5.10;4.60;;;;;;;;;;4966956;28;20047;-67
2023/03/23 08:46:42;;;;;;;4.38;3.92;;;;;;;;;;4965280;28;20034;-67
2023/03/23 08:49:34;;;;;;;4.27;3.83;;;;;;;;;;4968791;28;20049;-67
2023/03/23 08:52:20;;;;;;;5.63;4.50;;;;;;;;;;4954978;28;20081;-67
2023/03/23 08:54:54;;;;;;;5.63;4.50;;;;;;;;;;4966804;28;20117;-67
2023/03/23 08:57:46;;;;;;;4.60;4.30;;;;;;;;;;4968967;28;20047;-67
2023/03/23 09:00:28;;;;;;;6.25;4.57;;;;;;;;;;4972314;28;20478;-67
2023/03/23 09:03:13;;;;;;;4.65;4.25;;;;;;;;;;4963851;28;20034;-67
2023/03/23 09:06:05;;;;;;;5.00;4.50;;;;;;;;;;4969557;28;20426;-67
2023/03/23 09:08:44;;;;;;;4.60;4.20;;;;;;;;;;4965883;28;20054;-67
2023/03/23 09:11:11;;;;;;;4.90;4.43;;;;;;;;;;4971017;28;20498;-67
2023/03/23 09:13:38;;;;;;;6.97;4.55;;;;;;;;;;4972664;28;20277;-67
2023/03/23 09:16:05;;;;;;;5.25;4.18;;;;;;;;;;4971548;28;20043;-67
2023/03/23 09:18:32;;;;;;;4.00;3.70;;;;;;;;;;4969618;28;20043;-68
2023/03/23 09:20:59;;;;;;;5.35;4.25;;;;;;;;;;4968098;28;20033;-67
2023/03/23 09:23:25;;;;;;;5.55;4.03;;;;;;;;;;4971637;28;20035;-67
2023/03/23 09:25:51;;;;;;;4.38;3.78;;;;;;;;;;4973647;28;20046;-67
2023/03/23 09:28:17;;;;;;;4.18;3.78;;;;;;;;;;4963907;28;20035;-67
2023/03/23 09:30:44;;;;;;;4.30;4.00;;;;;;;;;;4967884;28;20034;-67
2023/03/23 09:33:09;;;;;;;4.50;3.90;;;;;;;;;;4964512;28;20323;-67
2023/03/23 09:35:37;;;;;;;4.22;3.92;;;;;;;;;;4972826;28;20399;-67
2023/03/23 09:38:03;;;;;;;4.18;3.83;;;;;;;;;;4970975;28;20039;-67
2023/03/23 09:40:51;;;;;;;4.07;3.78;;;;;;;;;;4971972;28;20082;-67
2023/03/23 09:43:20;;;;;;;6.32;3.72;;;;;;;;;;4974701;28;20038;-67
2023/03/23 09:46:19;;;;;;;3.80;3.50;;;;;;;;;;4970168;28;20057;-66
2023/03/23 09:48:56;;;;;;;3.72;3.53;;;;;;;;;;4973482;28;20049;-67
2023/03/23 09:51:49;;;;;;;5.70;3.80;;;;;;;;;;4980444;28;20457;-66
2023/03/23 09:54:34;;;;;;;4.03;3.75;;;;;;;;;;4991428;28;20050;-67
2023/03/23 09:57:01;;;;;;;4.18;3.80;;;;;;;;;;4967603;28;20069;-66
2023/03/23 09:59:48;;;;;;;5.07;4.05;;;;;;;;;;4971035;28;20035;-66
2023/03/23 10:02:32;;;;;;;4.70;3.80;;;;;;;;;;4971333;28;20531;-67
2023/03/23 10:05:26;;;;;;;3.97;3.72;;;;;;;;;;4972182;28;20070;-66
2023/03/23 10:07:51;;;;;;;4.65;4.25;;;;;;;;;;4971494;28;20117;-67
2023/03/23 10:10:18;;;;;;;4.88;4.28;;;;;;;;;;4967390;28;20125;-67
2023/03/23 10:13:14;;;;;;;5.20;4.68;;;;;;;;;;4970310;28;20039;-67
2023/03/23 10:15:40;;;;;;;5.10;4.00;;;;;;;;;;4973867;28;20038;-67
2023/03/23 10:18:15;;;;;;;4.35;4.05;;;;;;;;;;4969076;28;20039;-67
2023/03/23 10:20:56;;;;;;;3.90;3.65;;;;;;;;;;4970211;28;20030;-66
2023/03/23 10:23:35;;;;;;;4.20;3.90;;;;;;;;;;4969115;28;20039;-67
2023/03/23 10:26:28;;;;;;;5.35;4.32;;;;;;;;;;4970929;28;20027;-67
2023/03/23 10:28:58;;;;;;;4.13;3.83;;;;;;;;;;4973782;28;20517;-67
2023/03/23 10:31:31;;;;;;;3.97;3.67;;;;;;;;;;4973679;28;20126;-67
2023/03/23 10:34:05;;;;;;;4.88;4.38;;;;;;;;;;4965241;28;20498;-67
2023/03/23 10:36:53;;;;;;;4.40;4.10;;;;;;;;;;4966946;28;20034;-67
2023/03/23 10:39:26;;;;;;;4.27;3.87;;;;;;;;;;4980793;28;20039;-67
2023/03/23 10:41:52;;;;;;;4.70;4.30;;;;;;;;;;4967347;28;20290;-67
2023/03/23 10:44:27;;;;;;;4.60;4.00;;;;;;;;;;4968037;28;20042;-67
2023/03/23 10:47:02;;;;;;;4.82;4.10;;;;;;;;;;4972011;28;20035;-67
2023/03/23 10:50:00;;;;;;;4.30;3.90;;;;;;;;;;4966915;28;20129;-67
2023/03/23 10:52:35;;;;;;;4.35;4.05;;;;;;;;;;4969280;28;20043;-67
2023/03/23 10:55:07;;;;;;;4.90;4.50;;;;;;;;;;4970124;28;20045;-67
2023/03/23 10:57:34;;;;;;;4.03;3.83;;;;;;;;;;4975433;28;20405;-67
2023/03/23 11:00:06;;;;;;;4.20;3.90;;;;;;;;;;4970349;28;20130;-67
2023/03/23 11:02:39;;;;;;;4.25;3.95;;;;;;;;;;4966531;28;20185;-67
2023/03/23 11:05:17;;;;;;;7.03;4.03;;;;;;;;;;4967897;28;20385;-67
2023/03/23 11:07:52;;;;;;;4.55;4.10;;;;;;;;;;4979065;28;20035;-67
2023/03/23 11:10:40;;;;;;;5.70;4.10;;;;;;;;;;4968665;28;20034;-67
2023/03/23 11:13:13;;;;;;;4.50;4.10;;;;;;;;;;4969169;28;20035;-67
2023/03/23 11:15:41;;;;;;;4.30;3.92;;;;;;;;;;4973194;28;20033;-67
2023/03/23 11:18:20;;;;;;;4.78;4.38;;;;;;;;;;4969462;28;20085;-67
2023/03/23 11:20:48;;;;;;;;;;;;;;;;;;4967726;28;20081;-67
2023/03/23 11:23:32;;;;;;;4.45;4.05;;;;;;;;;;4970943;28;19929;-66
2023/03/23 11:26:20;;;;;;;8.82;4.38;;;;;;;;;;4965174;28;20129;-67
2023/03/23 11:28:55;;;;;;;4.20;3.90;;;;;;;;;;4967810;28;20038;-67
2023/03/23 11:31:28;;;;;;;4.70;4.40;;;;;;;;;;4967847;28;20035;-67
2023/03/23 11:34:09;;;;;;;4.82;4.05;;;;;;;;;;4970736;28;20073;-67
2023/03/23 11:36:42;;;;;;;4.45;4.15;;;;;;;;;;4971754;28;20133;-66
2023/03/23 11:39:48;;;;;;;4.40;4.10;;;;;;;;;;4965323;28;20034;-66
2023/03/23 11:42:27;;;;;;;4.22;3.88;;;;;;;;;;4949413;28;20055;-67
2023/03/23 11:44:54;;;;;;;4.90;4.40;;;;;;;;;;4963997;28;20097;-67
2023/03/23 11:47:37;;;;;;;4.40;3.90;;;;;;;;;;4966953;28;20039;-67
2023/03/23 11:50:26;;;;;;;4.30;4.00;;;;;;;;;;4970840;28;20042;-67
2023/03/23 11:53:16;;;;;;;4.38;4.07;;;;;;;;;;4967083;28;20056;-67
2023/03/23 11:55:45;;;;;;;4.30;4.00;;;;;;;;;;4966554;28;20039;-67
2023/03/23 11:58:16;;;;;;;4.18;3.80;;;;;;;;;;4968793;28;20090;-67
2023/03/23 12:00:54;;;;;;;4.25;3.95;;;;;;;;;;4968848;28;20109;-67
2023/03/23 12:03:33;;;;;;;4.20;3.87;;;;;;;;;;4963528;28;20412;-67
2023/03/23 12:06:06;;;;;;;4.30;3.90;;;;;;;;;;4968691;28;20138;-67
2023/03/23 12:08:59;;;;;;;4.18;3.88;;;;;;;;;;4970024;28;20517;-67
2023/03/23 12:11:37;;;;;;;4.85;4.45;;;;;;;;;;4967854;28;20495;-67
2023/03/23 12:14:26;;;;;;;4.38;3.97;;;;;;;;;;4965791;28;20175;-67
2023/03/23 12:17:32;;;;;;;4.28;4.00;;;;;;;;;;4973843;28;20042;-67
2023/03/23 12:20:16;;;;;;;4.43;4.03;;;;;;;;;;4955882;28;20053;-67
2023/03/23 12:22:44;;;;;;;4.15;3.85;;;;;;;;;;4966912;28;20038;-67
2023/03/23 12:25:10;;;;;;;5.27;4.30;;;;;;;;;;4963276;28;20089;-67
2023/03/23 12:27:40;;;;;;;5.07;4.05;;;;;;;;;;4971321;28;20046;-67
2023/03/23 12:30:28;;;;;;;4.40;4.10;;;;;;;;;;4968146;28;20518;-67
2023/03/23 12:33:03;;;;;;;4.03;3.72;;;;;;;;;;4971102;28;20066;-67
2023/03/23 12:35:48;;;;;;;4.00;3.60;;;;;;;;;;4969657;28;20062;-67
2023/03/23 12:38:32;;;;;;;4.97;4.28;;;;;;;;;;4968951;28;20465;-67
2023/03/23 12:41:01;;;;;;;4.20;3.83;;;;;;;;;;4965607;28;20039;-67
2023/03/23 12:43:51;;;;;;;4.85;4.40;;;;;;;;;;4966028;28;20081;-67
2023/03/23 12:46:35;;;;;;;4.22;3.80;;;;;;;;;;4970663;28;20147;-68
2023/03/23 12:49:11;;;;;;;5.47;4.07;;;;;;;;;;4965321;28;20038;-67
2023/03/23 12:51:53;;;;;;;4.45;4.15;;;;;;;;;;4970303;28;20038;-67
2023/03/23 12:54:30;;;;;;;4.50;4.13;;;;;;;;;;4965921;28;20034;-68
2023/03/23 12:57:07;;;;;;;4.90;4.32;;;;;;;;;;4964765;28;20098;-67
2023/03/23 12:59:50;;;;;;;4.97;4.50;;;;;;;;;;4973787;28;20602;-67
2023/03/23 13:02:23;;;;;;;3.80;3.50;;;;;;;;;;4964363;28;20043;-67
2023/03/23 13:04:56;;;;;;;4.50;4.20;;;;;;;;;;4964854;28;20427;-68
2023/03/23 13:07:29;;;;;;;4.32;4.03;;;;;;;;;;4966820;28;20042;-68
2023/03/23 13:10:19;;;;;;;5.43;4.30;;;;;;;;;;4976162;28;20051;-68
2023/03/23 13:12:47;;;;;;;4.60;4.20;;;;;;;;;;4971760;28;20035;-67
2023/03/23 13:15:22;;;;;;;5.53;4.13;;;;;;;;;;4969513;28;20410;-67
2023/03/23 13:17:53;;;;;;;4.40;4.10;;;;;;;;;;4974068;28;20070;-67
2023/03/23 13:20:45;;;;;;;4.20;3.80;;;;;;;;;;4967992;28;20364;-67
2023/03/23 13:23:24;;;;;;;4.38;4.07;;;;;;;;;;4973784;28;20068;-67
2023/03/23 13:25:51;;;;;;;4.75;4.00;;;;;;;;;;4969471;28;20039;-67
2023/03/23 13:28:28;;;;;;;4.90;4.43;;;;;;;;;;4969340;28;20553;-67
2023/03/23 13:31:14;;;;;;;4.53;3.90;;;;;;;;;;4972832;28;20426;-67
2023/03/23 13:33:49;;;;;;;4.78;4.38;;;;;;;;;;4967556;28;20042;-67
2023/03/23 13:36:19;;;;;;;4.45;4.15;;;;;;;;;;4964754;28;20114;-67
2023/03/23 13:38:48;;;;;;;4.80;4.43;;;;;;;;;;4967856;28;20707;-67
2023/03/23 13:41:16;;;;;;;5.05;4.20;;;;;;;;;;4973086;28;20093;-67
2023/03/23 13:43:44;;;;;;;5.50;4.40;;;;;;;;;;4978044;28;20073;-67
2023/03/23 13:46:19;;;;;;;4.75;4.35;;;;;;;;;;4969511;28;20053;-67
2023/03/23 13:48:51;;;;;;;4.32;3.97;;;;;;;;;;4969531;28;20085;-67
2023/03/23 13:51:34;;;;;;;4.63;4.05;;;;;;;;;;4973152;28;20045;-67
2023/03/23 13:54:12;;;;;;;4.10;3.80;;;;;;;;;;4961651;28;20042;-67
2023/03/23 13:56:53;;;;;;;4.45;4.05;;;;;;;;;;4968787;28;20512;-67
2023/03/23 13:59:48;;;;;;;6.75;4.05;;;;;;;;;;4975349;28;20034;-67
2023/03/23 14:02:41;;;;;;;4.40;4.00;;;;;;;;;;4969368;28;20121;-67
2023/03/23 14:05:18;;;;;;;4.60;4.25;;;;;;;;;;4971930;28;20054;-67
2023/03/23 14:07:56;;;;;;;4.07;3.78;;;;;;;;;;4969827;28;20113;-67
2023/03/23 14:10:23;;;;;;;4.03;3.72;;;;;;;;;;4968978;28;20035;-68
2023/03/23 14:12:52;;;;;;;4.80;4.40;;;;;;;;;;4970614;28;20128;-67
2023/03/23 14:15:18;;;;;;;4.40;4.00;;;;;;;;;;4970428;28;20034;-67
2023/03/23 14:17:45;;;;;;;4.93;4.22;;;;;;;;;;4971335;28;20322;-67
2023/03/23 14:20:25;;;;;;;4.88;4.47;;;;;;;;;;4967934;28;20034;-67
2023/03/23 14:22:55;;;;;;;4.50;4.10;;;;;;;;;;4968768;28;20066;-67
2023/03/23 14:25:23;;;;;;;5.22;4.20;;;;;;;;;;4965308;28;20027;-67
2023/03/23 14:27:52;;;;;;;4.88;4.47;;;;;;;;;;4968517;28;20042;-67
2023/03/23 14:30:20;;;;;;;4.47;4.07;;;;;;;;;;4987053;28;20035;-67
2023/03/23 14:32:46;;;;;;;4.45;4.15;;;;;;;;;;4973116;28;20397;-67
2023/03/23 14:35:25;;;;;;;5.40;4.90;;;;;;;;;;4969580;28;20042;-67
2023/03/23 14:37:52;;;;;;;4.63;4.20;;;;;;;;;;4972229;28;20117;-67
2023/03/23 14:40:18;;;;;;;7.00;4.70;;;;;;;;;;4976573;28;20045;-67
2023/03/23 14:42:45;;;;;;;4.90;4.47;;;;;;;;;;4969757;28;20057;-67
2023/03/23 14:45:16;;;;;;;4.80;4.30;;;;;;;;;;4972749;28;20050;-67
2023/03/23 14:47:47;;;;;;;6.60;4.28;;;;;;;;;;4974227;28;20031;-67
2023/03/23 14:50:29;;;;;;;5.03;4.18;;;;;;;;;;4966017;28;20512;-67
2023/03/23 14:53:02;;;;;;;4.53;4.07;;;;;;;;;;4973409;28;20084;-67
2023/03/23 14:55:30;;;;;;;4.72;4.30;;;;;;;;;;4972728;28;20058;-67
2023/03/23 14:58:09;;;;;;;8.65;4.25;;;;;;;;;;4977573;28;20050;-67
2023/03/23 15:00:41;;;;;;;5.13;4.63;;;;;;;;;;4968602;28;20916;-67
2023/03/23 15:03:13;;;;;;;5.18;4.63;;;;;;;;;;4974127;28;20491;-67
2023/03/23 15:05:45;;;;;;;4.20;3.90;;;;;;;;;;4968772;28;20042;-67
2023/03/23 15:08:25;;;;;;;4.70;4.30;;;;;;;;;;4970998;28;20035;-67
2023/03/23 15:10:53;;;;;;;4.28;3.92;;;;;;;;;;4968743;28;20062;-67
2023/03/23 15:13:19;;;;;;;4.45;4.10;;;;;;;;;;4974990;28;20053;-67
2023/03/23 15:15:45;;;;;;;4.75;4.35;;;;;;;;;;4969220;28;20068;-67
2023/03/23 15:18:32;;;;;;;4.78;4.38;;;;;;;;;;4966438;28;20031;-67
2023/03/23 15:21:09;;;;;;;4.95;4.50;;;;;;;;;;4973356;28;20034;-67
2023/03/23 15:23:41;;;;;;;4.80;4.40;;;;;;;;;;4969918;28;20618;-67
2023/03/23 15:26:20;;;;;;;4.82;4.28;;;;;;;;;;4966409;28;20118;-67